createdAt,value
2022-12-05T00:01:30.054Z,5.50
2022-12-05T00:04:01.554Z,5.50
2022-12-05T00:06:30.713Z,5.50
2022-12-05T00:08:58.400Z,5.60
2022-12-05T00:11:28.649Z,5.50
2022-12-05T00:13:57.379Z,5.50
2022-12-05T00:16:26.535Z,5.50
2022-12-05T00:21:24.113Z,5.50
2022-12-05T00:23:52.709Z,5.60
2022-12-05T00:26:20.205Z,5.50
2022-12-05T00:31:20.853Z,5.50
2022-12-05T00:33:48.626Z,5.50
2022-12-05T00:36:18.872Z,5.50
2022-12-05T00:38:45.857Z,6.10
2022-12-05T00:41:15.948Z,5.50
2022-12-05T00:46:16.906Z,5.50
2022-12-05T00:51:15.910Z,5.50
2022-12-05T00:53:44.384Z,5.50
2022-12-05T00:56:15.105Z,6.40
2022-12-05T01:01:18.965Z,5.50
2022-12-05T01:03:46.852Z,5.50
2022-12-05T01:06:15.593Z,5.40
2022-12-05T01:11:11.685Z,5.40
2022-12-05T01:16:06.326Z,5.50
2022-12-05T01:30:50.670Z,5.40
2022-12-05T01:33:18.450Z,5.40
2022-12-05T01:40:41.364Z,5.40
2022-12-05T01:43:16.459Z,5.40
2022-12-05T01:45:45.876Z,5.40
2022-12-05T01:48:19.766Z,5.40
2022-12-05T01:50:48.677Z,5.40
2022-12-05T01:53:17.602Z,5.40
2022-12-05T01:55:46.185Z,5.30
2022-12-05T02:03:14.412Z,5.30
2022-12-05T02:08:11.511Z,5.30
2022-12-05T02:10:45.144Z,5.40
2022-12-05T02:13:41.638Z,5.40
2022-12-05T02:16:45.242Z,5.40
2022-12-05T02:19:33.492Z,5.40
2022-12-05T02:22:15.430Z,5.50
2022-12-05T02:25:16.236Z,5.50
2022-12-05T02:27:58.095Z,5.50
2022-12-05T02:30:26.664Z,5.50
2022-12-05T02:33:02.434Z,7.60
2022-12-05T02:35:59.457Z,5.40
2022-12-05T02:38:52.210Z,5.40
2022-12-05T02:41:40.761Z,5.40
2022-12-05T02:44:16.366Z,6.00
2022-12-05T02:46:46.840Z,5.50
2022-12-05T02:49:18.895Z,5.50
2022-12-05T02:51:49.185Z,5.50
2022-12-05T02:54:18.667Z,6.80
2022-12-05T02:56:47.328Z,5.40
2022-12-05T03:04:20.171Z,5.50
2022-12-05T03:06:53.346Z,5.40
2022-12-05T03:09:25.375Z,5.40
2022-12-05T03:12:06.884Z,5.30
2022-12-05T03:14:38.178Z,5.40
2022-12-05T03:17:12.738Z,5.40
2022-12-05T03:19:58.001Z,5.50
2022-12-05T03:22:29.100Z,5.30
2022-12-05T03:24:59.779Z,5.30
2022-12-05T03:28:08.338Z,5.40
2022-12-05T03:30:39.208Z,5.20
2022-12-05T03:33:20.393Z,5.10
2022-12-05T03:36:06.404Z,5.10
2022-12-05T03:41:15.339Z,5.10
2022-12-05T03:48:39.442Z,4.90
2022-12-05T03:51:09.066Z,4.90
2022-12-05T03:53:42.168Z,4.90
2022-12-05T03:56:23.693Z,4.90
2022-12-05T03:59:13.715Z,4.90
2022-12-05T04:01:42.729Z,4.90
2022-12-05T04:04:17.138Z,4.90
2022-12-05T04:06:49.195Z,4.90
2022-12-05T04:09:23.257Z,4.90
2022-12-05T04:11:56.820Z,4.90
2022-12-05T04:14:35.330Z,4.80
2022-12-05T04:17:09.532Z,4.90
2022-12-05T04:20:05.689Z,4.90
2022-12-05T04:22:33.904Z,4.90
2022-12-05T04:25:21.321Z,4.90
2022-12-05T04:30:20.457Z,5.00
2022-12-05T04:33:02.714Z,5.00
2022-12-05T04:35:37.558Z,5.00
2022-12-05T04:38:24.222Z,5.00
2022-12-05T04:41:02.267Z,5.00
2022-12-05T04:43:36.861Z,5.00
2022-12-05T04:46:07.447Z,5.00
2022-12-05T04:48:44.028Z,5.00
2022-12-05T04:51:18.654Z,5.00
2022-12-05T04:53:46.625Z,5.10
2022-12-05T04:56:18.114Z,5.00
2022-12-05T05:01:38.510Z,5.00
2022-12-05T05:04:13.891Z,5.00
2022-12-05T05:06:42.100Z,4.90
2022-12-05T05:16:36.998Z,4.90
2022-12-05T05:19:06.137Z,4.90
2022-12-05T05:21:36.083Z,5.00
2022-12-05T05:24:12.976Z,5.00
2022-12-05T05:26:57.484Z,5.00
2022-12-05T05:32:43.224Z,5.10
2022-12-05T05:37:59.836Z,5.10
2022-12-05T05:47:22.980Z,5.00
2022-12-05T05:49:59.372Z,5.00
2022-12-05T05:56:32.347Z,5.00
2022-12-05T06:04:44.773Z,4.90
2022-12-05T06:07:28.281Z,4.80
2022-12-05T06:10:13.253Z,4.80
2022-12-05T06:20:56.615Z,4.60
2022-12-05T06:23:39.196Z,4.60
2022-12-05T06:26:18.465Z,4.50
2022-12-05T06:28:58.400Z,4.50
2022-12-05T06:31:51.954Z,4.60
2022-12-05T06:35:07.890Z,4.60
2022-12-05T06:37:57.881Z,4.60
2022-12-05T06:40:24.816Z,4.60
2022-12-05T06:47:46.730Z,4.80
2022-12-05T06:55:08.632Z,4.90
2022-12-05T07:00:23.806Z,5.00
2022-12-05T07:02:52.756Z,4.90
2022-12-05T07:10:15.986Z,4.90
2022-12-05T07:17:38.834Z,4.90
2022-12-05T07:20:07.891Z,4.90
2022-12-05T07:22:37.039Z,5.00
2022-12-05T07:25:05.136Z,4.90
2022-12-05T07:37:23.826Z,5.00
2022-12-05T07:39:54.888Z,5.00
2022-12-05T07:47:16.771Z,5.00
2022-12-05T07:54:38.528Z,5.00
2022-12-05T08:14:19.803Z,4.80
2022-12-05T08:31:36.573Z,4.90
2022-12-05T08:39:01.081Z,4.90
2022-12-05T08:44:03.290Z,4.90
2022-12-05T08:46:32.551Z,5.00
2022-12-05T08:53:56.295Z,4.90
2022-12-05T08:59:01.151Z,4.90
2022-12-05T09:04:01.703Z,4.90
2022-12-05T09:08:59.253Z,4.90
2022-12-05T09:11:28.742Z,4.80
2022-12-05T09:13:58.335Z,4.80
2022-12-05T09:16:36.925Z,4.80
2022-12-05T09:19:11.074Z,4.80
2022-12-05T09:24:05.322Z,4.80
2022-12-05T09:36:25.280Z,4.70
2022-12-05T09:38:52.797Z,4.70
2022-12-05T09:42:08.132Z,4.70
2022-12-05T09:45:05.883Z,4.70
2022-12-05T09:52:41.323Z,4.70
2022-12-05T09:55:14.281Z,4.70
2022-12-05T09:57:49.020Z,4.70
2022-12-05T10:00:16.550Z,4.70
2022-12-05T10:02:59.182Z,4.80
2022-12-05T10:05:36.033Z,4.80
2022-12-05T10:11:02.122Z,4.80
2022-12-05T10:13:40.454Z,4.80
2022-12-05T10:16:20.912Z,4.80
2022-12-05T10:19:06.826Z,4.80
2022-12-05T10:21:56.859Z,4.80
2022-12-05T10:24:36.946Z,4.90
2022-12-05T10:27:07.884Z,4.80
2022-12-05T10:29:51.698Z,4.80
2022-12-05T10:32:31.834Z,4.80
2022-12-05T10:35:18.145Z,4.80
2022-12-05T10:38:24.847Z,4.80
2022-12-05T10:40:55.532Z,4.80
2022-12-05T10:43:31.364Z,4.80
2022-12-05T10:45:59.066Z,4.80
2022-12-05T10:50:56.188Z,4.80
2022-12-05T10:53:52.729Z,4.70
2022-12-05T10:56:50.286Z,4.80
2022-12-05T10:59:20.447Z,4.80
2022-12-05T11:01:49.602Z,4.80
2022-12-05T11:04:30.211Z,4.80
2022-12-05T11:07:01.245Z,4.80
2022-12-05T11:09:37.280Z,4.90
2022-12-05T11:17:02.088Z,5.00
2022-12-05T11:19:35.287Z,5.00
2022-12-05T11:24:36.565Z,5.00
2022-12-05T11:27:28.352Z,5.00
2022-12-05T11:30:00.770Z,5.00
2022-12-05T11:32:33.429Z,5.00
2022-12-05T11:35:18.480Z,5.00
2022-12-05T11:40:26.736Z,5.00
2022-12-05T11:43:32.627Z,5.00
2022-12-05T11:46:27.242Z,5.00
2022-12-05T11:49:15.720Z,4.90
2022-12-05T11:55:04.047Z,4.90
2022-12-05T11:57:51.864Z,4.90
2022-12-05T12:00:22.825Z,4.90
2022-12-05T12:03:15.959Z,4.90
2022-12-05T12:06:04.926Z,5.10
2022-12-05T12:08:48.568Z,4.90
2022-12-05T12:11:38.522Z,5.00
2022-12-05T12:14:25.754Z,5.10
2022-12-05T12:17:26.373Z,5.10
2022-12-05T12:22:52.283Z,5.10
2022-12-05T12:28:05.261Z,5.10
2022-12-05T12:30:57.289Z,5.10
2022-12-05T12:33:41.761Z,5.20
2022-12-05T12:36:35.238Z,5.10
2022-12-05T12:39:22.345Z,5.10
2022-12-05T12:41:55.339Z,5.10
2022-12-05T12:44:25.043Z,5.10
2022-12-05T12:47:01.235Z,5.10
2022-12-05T12:49:54.073Z,5.10
2022-12-05T12:52:28.742Z,5.20
2022-12-05T12:55:15.835Z,5.20
2022-12-05T12:57:54.701Z,5.20
2022-12-05T13:00:27.816Z,6.00
2022-12-05T13:03:12.628Z,5.20
2022-12-05T13:05:46.715Z,5.20
2022-12-05T13:08:54.882Z,5.20
2022-12-05T13:11:23.115Z,5.20
2022-12-05T13:13:56.676Z,5.20
2022-12-05T13:16:42.542Z,5.30
2022-12-05T13:19:29.379Z,5.30
2022-12-05T13:21:59.080Z,5.30
2022-12-05T13:24:28.376Z,5.30
2022-12-05T13:27:00.653Z,5.30
2022-12-05T13:29:41.199Z,5.40
2022-12-05T13:32:24.697Z,5.30
2022-12-05T13:34:52.459Z,5.40
2022-12-05T13:37:45.081Z,5.40
2022-12-05T13:40:59.639Z,5.40
2022-12-05T13:43:29.210Z,5.40
2022-12-05T13:46:12.079Z,5.30
2022-12-05T13:48:42.625Z,5.50
2022-12-05T13:51:45.927Z,5.40
2022-12-05T13:54:17.108Z,5.40
2022-12-05T13:56:50.086Z,5.40
2022-12-05T13:59:54.691Z,5.40
2022-12-05T14:02:43.560Z,5.40
2022-12-05T14:05:19.437Z,5.50
2022-12-05T14:07:48.692Z,5.50
2022-12-05T14:10:43.262Z,5.50
2022-12-05T14:13:16.166Z,5.50
2022-12-05T14:15:45.723Z,5.70
2022-12-05T14:18:30.713Z,5.50
2022-12-05T14:21:41.619Z,5.50
2022-12-05T14:24:20.447Z,5.50
2022-12-05T14:27:14.975Z,5.50
2022-12-05T14:29:59.960Z,5.50
2022-12-05T14:32:36.095Z,5.50
2022-12-05T14:35:15.956Z,5.50
2022-12-05T14:38:05.430Z,5.50
2022-12-05T14:40:42.282Z,5.50
2022-12-05T14:43:29.676Z,5.50
2022-12-05T14:46:08.630Z,5.50
2022-12-05T14:48:47.976Z,5.60
2022-12-05T14:51:30.500Z,5.60
2022-12-05T14:54:03.324Z,5.60
2022-12-05T14:56:32.232Z,5.60
2022-12-05T14:59:07.933Z,5.80
2022-12-05T15:01:42.757Z,5.60
2022-12-05T15:04:12.566Z,5.60
2022-12-05T15:06:47.659Z,5.60
2022-12-05T15:09:45.114Z,5.60
2022-12-05T15:12:20.174Z,5.60
2022-12-05T15:15:00.974Z,5.50
2022-12-05T15:17:37.238Z,5.60
2022-12-05T15:20:11.384Z,5.60
2022-12-05T15:22:38.461Z,5.50
2022-12-05T15:25:21.332Z,5.60
2022-12-05T15:28:20.409Z,5.60
2022-12-05T15:30:56.486Z,5.50
2022-12-05T15:33:26.485Z,5.50
2022-12-05T15:35:55.293Z,5.50
2022-12-05T15:38:32.774Z,5.60
2022-12-05T15:40:59.681Z,5.60
2022-12-05T15:43:32.393Z,5.50
2022-12-05T15:46:20.201Z,5.50
2022-12-05T15:48:47.297Z,5.50
2022-12-05T15:51:14.650Z,5.50
2022-12-05T15:53:50.966Z,5.50
2022-12-05T15:56:45.718Z,5.60
2022-12-05T15:59:25.088Z,5.50
2022-12-05T16:01:59.230Z,5.60
2022-12-05T16:04:44.054Z,5.50
2022-12-05T16:07:13.686Z,5.50
2022-12-05T16:09:43.285Z,7.30
2022-12-05T16:12:22.559Z,5.60
2022-12-05T16:15:01.156Z,5.60
2022-12-05T16:17:37.656Z,5.70
2022-12-05T16:20:17.725Z,5.60
2022-12-05T16:22:49.751Z,5.60
2022-12-05T16:25:21.854Z,5.60
2022-12-05T16:28:22.115Z,5.60
2022-12-05T16:31:01.836Z,5.60
2022-12-05T16:33:30.369Z,5.60
2022-12-05T16:38:25.987Z,5.60
2022-12-05T16:41:00.482Z,5.60
2022-12-05T16:43:33.705Z,5.60
2022-12-05T16:46:40.866Z,5.60
2022-12-05T16:49:25.581Z,5.60
2022-12-05T16:52:07.798Z,5.60
2022-12-05T16:57:03.150Z,5.60
2022-12-05T16:59:39.024Z,5.60
2022-12-05T17:02:12.378Z,5.60
2022-12-05T17:04:39.862Z,5.60
2022-12-05T17:07:06.985Z,5.60
2022-12-05T17:12:28.432Z,5.50
2022-12-05T17:14:55.379Z,5.50
2022-12-05T17:17:22.457Z,5.50
2022-12-05T17:19:49.643Z,5.50
2022-12-05T17:22:17.189Z,5.60
2022-12-05T17:24:45.624Z,5.50
2022-12-05T17:27:13.424Z,5.50
2022-12-05T17:32:11.773Z,5.60
2022-12-05T17:34:38.820Z,6.40
2022-12-05T17:37:05.737Z,5.60
2022-12-05T17:39:32.718Z,5.50
2022-12-05T17:44:27.285Z,5.50
2022-12-05T17:46:54.360Z,5.50
2022-12-05T17:49:22.915Z,5.50
2022-12-05T17:52:20.453Z,5.50
2022-12-05T17:54:40.851Z,5.50
2022-12-05T17:59:35.183Z,5.40
2022-12-05T18:02:02.066Z,5.50
2022-12-05T18:14:18.741Z,5.50
2022-12-05T18:16:45.721Z,5.50
2022-12-05T18:19:12.758Z,5.50
2022-12-05T18:21:39.698Z,5.50
2022-12-05T18:24:06.968Z,5.50
2022-12-05T18:26:33.838Z,5.50
2022-12-05T18:29:00.963Z,5.50
2022-12-05T18:33:56.393Z,5.40
2022-12-05T18:36:23.537Z,5.40
2022-12-05T18:38:54.475Z,5.50
2022-12-05T18:41:27.223Z,5.50
2022-12-05T18:43:54.481Z,5.40
2022-12-05T18:48:49.197Z,5.40
2022-12-05T18:51:20.618Z,5.40
2022-12-05T18:53:52.516Z,5.40
2022-12-05T18:56:24.684Z,5.40
2022-12-05T18:58:55.219Z,5.40
2022-12-05T19:01:22.351Z,5.40
2022-12-05T19:03:49.510Z,5.50
2022-12-05T19:06:19.572Z,5.40
2022-12-05T19:08:46.898Z,5.40
2022-12-05T19:11:19.453Z,5.30
2022-12-05T19:13:47.554Z,5.30
2022-12-05T19:16:18.912Z,5.30
2022-12-05T19:18:47.252Z,5.40
2022-12-05T19:21:14.404Z,5.30
2022-12-05T19:26:09.714Z,5.30
2022-12-05T19:28:37.847Z,5.30
2022-12-05T19:31:07.984Z,5.30
2022-12-05T19:33:40.029Z,5.10
2022-12-05T19:36:11.412Z,5.30
2022-12-05T19:38:40.124Z,5.30
2022-12-05T19:41:09.065Z,5.30
2022-12-05T19:43:37.231Z,5.40
2022-12-05T19:46:10.770Z,5.30
2022-12-05T19:48:38.295Z,5.50
2022-12-05T19:51:05.882Z,5.40
2022-12-05T19:53:35.455Z,5.40
2022-12-05T19:56:07.231Z,5.40
2022-12-05T19:58:35.546Z,5.30
2022-12-05T20:01:08.649Z,5.30
2022-12-05T20:03:35.624Z,5.30
2022-12-05T20:06:02.654Z,5.40
2022-12-05T20:08:29.539Z,5.40
2022-12-05T20:13:45.919Z,5.50
2022-12-05T20:16:13.015Z,5.40
2022-12-05T20:18:41.035Z,5.40
2022-12-05T20:21:10.840Z,5.40
2022-12-05T20:26:09.748Z,5.40
2022-12-05T20:28:37.509Z,5.40
2022-12-05T20:31:25.072Z,5.40
2022-12-05T20:33:53.715Z,5.40
2022-12-05T20:36:23.836Z,5.40
2022-12-05T20:38:59.405Z,5.40
2022-12-05T20:41:27.711Z,5.50
2022-12-05T20:43:57.177Z,5.40
2022-12-05T20:46:24.470Z,5.50
2022-12-05T20:48:52.353Z,5.50
2022-12-05T20:51:31.046Z,5.50
2022-12-05T20:54:00.228Z,5.50
2022-12-05T20:56:30.192Z,5.50
2022-12-05T20:59:00.245Z,5.50
2022-12-05T21:01:28.573Z,5.50
2022-12-05T21:06:31.906Z,5.50
2022-12-05T21:09:00.312Z,5.50
2022-12-05T21:11:28.608Z,5.50
2022-12-05T21:13:57.069Z,5.40
2022-12-05T21:16:24.145Z,5.40
2022-12-05T21:21:21.633Z,5.40
2022-12-05T21:24:00.004Z,5.50
2022-12-05T21:26:29.597Z,5.50
2022-12-05T21:28:56.972Z,5.50
2022-12-05T21:31:28.478Z,5.50
2022-12-05T21:33:59.145Z,5.60
2022-12-05T21:36:28.079Z,5.60
2022-12-05T21:38:56.575Z,5.60
2022-12-05T21:41:24.867Z,5.60
2022-12-05T21:43:54.939Z,5.60
2022-12-05T21:56:15.730Z,5.70
2022-12-05T21:58:44.847Z,5.70
2022-12-05T22:01:17.517Z,5.80
2022-12-05T22:03:45.164Z,5.70
2022-12-05T22:06:15.252Z,5.80
2022-12-05T22:11:15.492Z,5.80
2022-12-05T22:13:43.093Z,5.80
2022-12-05T22:16:10.753Z,5.80
2022-12-05T22:21:20.964Z,5.80
2022-12-05T22:26:18.595Z,5.80
2022-12-05T22:31:15.613Z,5.80
2022-12-05T22:36:13.165Z,5.70
2022-12-05T22:38:42.219Z,5.80
2022-12-05T22:41:14.093Z,5.80
2022-12-05T22:43:42.396Z,5.80
2022-12-05T22:46:12.915Z,5.80
2022-12-05T22:51:08.260Z,5.80
2022-12-05T22:53:35.585Z,5.70
2022-12-05T22:56:14.571Z,5.80
2022-12-05T22:58:43.237Z,5.80
2022-12-05T23:01:20.390Z,5.80
2022-12-05T23:03:49.190Z,5.80
2022-12-05T23:06:17.647Z,5.80
2022-12-05T23:08:47.908Z,5.80
2022-12-05T23:11:16.274Z,5.80
2022-12-05T23:16:14.982Z,5.70
2022-12-05T23:21:34.405Z,5.80
2022-12-05T23:24:03.725Z,6.70
2022-12-05T23:26:33.901Z,5.80
2022-12-05T23:34:01.322Z,5.70
2022-12-05T23:43:53.662Z,5.80
2022-12-05T23:46:23.524Z,5.80
2022-12-05T23:51:26.400Z,5.80
2022-12-05T23:53:58.565Z,5.80
2022-12-05T23:56:28.281Z,5.80
2022-12-05T23:58:55.909Z,5.80
